createdAt,value
2022-10-05T00:00:01.996Z,23.0
2022-10-05T00:05:00.146Z,23.0
2022-10-05T00:10:01.295Z,23.0
2022-10-05T00:15:01.026Z,23.0
2022-10-05T00:20:00.166Z,23.0
2022-10-05T00:25:00.127Z,23.0
2022-10-05T00:30:00.979Z,23.0
2022-10-05T00:35:00.110Z,23.0
2022-10-05T00:40:01.939Z,23.0
2022-10-05T00:45:00.114Z,23.0
2022-10-05T00:50:01.056Z,23.0
2022-10-05T00:55:00.100Z,22.9
2022-10-05T01:00:01.052Z,23.0
2022-10-05T01:05:00.090Z,22.9
2022-10-05T01:10:01.254Z,22.9
2022-10-05T01:15:00.974Z,22.9
2022-10-05T01:20:00.993Z,22.9
2022-10-05T01:25:01.003Z,22.9
2022-10-05T01:30:00.152Z,22.9
2022-10-05T01:35:01.473Z,22.9
2022-10-05T01:40:01.101Z,22.8
2022-10-05T01:45:00.120Z,22.8
2022-10-05T01:50:00.825Z,22.9
2022-10-05T01:55:00.086Z,22.8
2022-10-05T02:00:01.089Z,22.8
2022-10-05T02:05:02.484Z,22.8
2022-10-05T02:10:01.169Z,22.8
2022-10-05T02:15:00.120Z,22.8
2022-10-05T02:20:01.355Z,22.8
2022-10-05T02:25:00.092Z,22.8
2022-10-05T02:30:01.042Z,22.8
2022-10-05T02:35:01.223Z,22.8
2022-10-05T02:40:01.174Z,22.8
2022-10-05T02:45:01.228Z,22.8
2022-10-05T02:50:00.112Z,22.7
2022-10-05T02:55:01.091Z,22.8
2022-10-05T03:00:01.301Z,22.7
2022-10-05T03:05:01.054Z,22.7
2022-10-05T03:10:02.306Z,22.6
2022-10-05T03:15:01.450Z,22.7
2022-10-05T03:20:01.111Z,22.7
2022-10-05T03:25:00.099Z,22.7
2022-10-05T03:30:00.865Z,22.7
2022-10-05T03:35:00.969Z,22.7
2022-10-05T03:40:01.772Z,22.7
2022-10-05T03:45:01.099Z,22.7
2022-10-05T03:50:01.281Z,22.6
2022-10-05T03:55:00.111Z,22.7
2022-10-05T04:00:01.119Z,22.6
2022-10-05T04:05:00.969Z,22.6
2022-10-05T04:10:00.114Z,22.6
2022-10-05T04:15:01.210Z,22.6
2022-10-05T04:20:00.275Z,22.6
2022-10-05T04:25:00.997Z,22.6
2022-10-05T04:30:01.300Z,22.6
2022-10-05T04:35:01.102Z,22.6
2022-10-05T04:40:01.063Z,22.7
2022-10-05T04:45:00.106Z,22.6
2022-10-05T04:50:01.306Z,22.6
2022-10-05T04:55:00.104Z,22.6
2022-10-05T05:00:01.040Z,22.6
2022-10-05T05:05:01.232Z,22.6
2022-10-05T05:10:01.224Z,22.6
2022-10-05T05:15:01.450Z,22.6
2022-10-05T05:20:01.296Z,22.6
2022-10-05T05:25:01.228Z,22.6
2022-10-05T05:30:01.468Z,22.6
2022-10-05T05:35:01.004Z,22.6
2022-10-05T05:40:00.965Z,22.6
2022-10-05T05:45:00.969Z,22.6
2022-10-05T05:50:06.526Z,22.5
2022-10-05T05:55:00.108Z,22.5
2022-10-05T06:00:00.129Z,22.6
2022-10-05T06:05:00.096Z,22.5
2022-10-05T06:10:01.239Z,22.6
2022-10-05T06:15:01.224Z,22.6
2022-10-05T06:20:05.154Z,22.6
2022-10-05T06:25:01.018Z,22.5
2022-10-05T06:30:01.385Z,22.5
2022-10-05T06:35:00.153Z,22.6
2022-10-05T06:40:01.426Z,22.5
2022-10-05T06:45:00.113Z,22.5
2022-10-05T06:50:00.119Z,22.5
2022-10-05T06:55:01.268Z,22.5
2022-10-05T07:00:01.262Z,22.5
2022-10-05T07:05:00.955Z,22.5
2022-10-05T07:10:01.266Z,22.5
2022-10-05T07:15:00.113Z,22.5
2022-10-05T07:20:01.295Z,22.5
2022-10-05T07:25:01.033Z,22.5
2022-10-05T07:30:01.033Z,22.5
2022-10-05T07:35:01.014Z,22.5
2022-10-05T07:40:01.664Z,22.5
2022-10-05T07:45:01.010Z,22.6
2022-10-05T07:50:00.144Z,22.5
2022-10-05T07:55:00.112Z,22.5
2022-10-05T08:00:00.193Z,22.5
2022-10-05T08:05:01.020Z,22.5
2022-10-05T08:10:01.403Z,22.5
2022-10-05T08:15:00.997Z,22.5
2022-10-05T08:20:01.325Z,22.5
2022-10-05T08:25:00.974Z,22.5
2022-10-05T08:30:01.254Z,22.5
2022-10-05T08:35:00.094Z,22.5
2022-10-05T08:40:01.272Z,22.5
2022-10-05T08:45:00.105Z,22.5
2022-10-05T08:50:01.138Z,22.5
2022-10-05T08:55:00.139Z,22.5
2022-10-05T09:00:00.273Z,22.5
2022-10-05T09:05:00.982Z,22.5
2022-10-05T09:10:01.781Z,22.5
2022-10-05T09:15:20.788Z,22.5
2022-10-05T09:20:00.186Z,22.5
2022-10-05T09:25:00.113Z,22.5
2022-10-05T09:30:01.171Z,22.6
2022-10-05T09:35:00.117Z,22.6
2022-10-05T09:40:01.580Z,22.6
2022-10-05T09:45:00.102Z,22.6
2022-10-05T09:50:00.972Z,22.6
2022-10-05T09:55:01.034Z,22.6
2022-10-05T10:00:01.303Z,22.6
2022-10-05T10:05:00.089Z,22.7
2022-10-05T10:10:00.998Z,22.6
2022-10-05T10:15:02.771Z,22.7
2022-10-05T10:20:00.149Z,22.6
2022-10-05T10:25:00.985Z,22.6
2022-10-05T10:30:01.033Z,22.7
2022-10-05T10:35:00.112Z,22.7
2022-10-05T10:40:01.076Z,22.7
2022-10-05T10:45:01.244Z,22.7
2022-10-05T10:50:00.152Z,22.7
2022-10-05T10:55:00.981Z,22.7
2022-10-05T11:00:01.267Z,22.7
2022-10-05T11:05:00.095Z,22.7
2022-10-05T11:10:00.995Z,22.7
2022-10-05T11:15:00.131Z,22.7
2022-10-05T11:20:03.919Z,22.8
2022-10-05T11:25:00.117Z,22.7
2022-10-05T11:30:00.145Z,22.8
2022-10-05T11:35:01.254Z,22.7
2022-10-05T11:40:01.038Z,22.7
2022-10-05T11:45:01.949Z,22.8
2022-10-05T11:50:01.279Z,22.8
2022-10-05T11:55:16.379Z,22.8
2022-10-05T12:00:00.143Z,22.8
2022-10-05T12:05:01.484Z,22.8
2022-10-05T12:10:00.993Z,22.8
2022-10-05T12:15:00.090Z,22.8
2022-10-05T12:20:01.495Z,22.8
2022-10-05T12:25:00.953Z,22.8
2022-10-05T12:30:00.976Z,22.8
2022-10-05T12:35:01.971Z,22.8
2022-10-05T12:40:01.455Z,22.8
2022-10-05T12:45:00.090Z,22.9
2022-10-05T12:50:02.751Z,22.9
2022-10-05T12:55:01.441Z,22.9
2022-10-05T13:00:01.110Z,22.9
2022-10-05T13:05:00.090Z,22.9
2022-10-05T13:10:01.086Z,23.0
2022-10-05T13:15:00.099Z,23.0
2022-10-05T13:20:01.063Z,23.0
2022-10-05T13:25:01.031Z,23.0
2022-10-05T13:30:01.043Z,23.0
2022-10-05T13:35:01.209Z,23.0
2022-10-05T13:40:01.426Z,23.0
2022-10-05T13:45:01.023Z,23.0
2022-10-05T13:50:01.746Z,23.0
2022-10-05T13:55:00.135Z,23.0
2022-10-05T14:00:00.277Z,23.0
2022-10-05T14:05:00.113Z,23.0
2022-10-05T14:10:01.294Z,23.1
2022-10-05T14:15:00.100Z,23.1
2022-10-05T14:20:01.011Z,23.1
2022-10-05T14:25:01.203Z,23.2
2022-10-05T14:30:00.932Z,23.2
2022-10-05T14:35:01.203Z,23.3
2022-10-05T14:40:03.297Z,23.3
2022-10-05T14:45:00.951Z,23.4
2022-10-05T14:50:00.142Z,23.4
2022-10-05T14:55:01.226Z,23.4
2022-10-05T15:00:00.983Z,23.4
2022-10-05T15:05:00.102Z,23.4
2022-10-05T15:10:02.549Z,23.4
2022-10-05T15:15:00.109Z,23.4
2022-10-05T15:20:01.280Z,23.4
2022-10-05T15:25:00.090Z,23.4
2022-10-05T15:30:01.057Z,23.4
2022-10-05T15:35:00.139Z,23.4
2022-10-05T15:40:00.174Z,23.4
2022-10-05T15:45:01.370Z,23.4
2022-10-05T15:50:01.233Z,23.4
2022-10-05T15:55:01.650Z,23.4
2022-10-05T16:00:01.334Z,23.4
2022-10-05T16:05:04.554Z,23.4
2022-10-05T16:10:00.147Z,23.4
2022-10-05T16:15:01.232Z,23.3
2022-10-05T16:20:01.082Z,23.4
2022-10-05T16:25:01.976Z,23.4
2022-10-05T16:30:01.447Z,23.3
2022-10-05T16:35:01.796Z,23.3
2022-10-05T16:40:00.231Z,23.3
2022-10-05T16:45:01.906Z,23.3
2022-10-05T16:50:02.212Z,23.2
2022-10-05T16:55:00.114Z,23.3
2022-10-05T17:00:01.273Z,23.2
2022-10-05T17:05:00.128Z,23.2
2022-10-05T17:10:00.153Z,23.2
2022-10-05T17:15:01.285Z,23.2
2022-10-05T17:20:01.087Z,23.1
2022-10-05T17:25:03.334Z,23.2
2022-10-05T17:30:01.887Z,23.2
2022-10-05T17:35:01.023Z,23.2
2022-10-05T17:40:01.087Z,23.2
2022-10-05T17:45:01.438Z,23.2
2022-10-05T17:50:01.076Z,23.2
2022-10-05T17:55:01.258Z,23.2
2022-10-05T18:00:01.906Z,23.2
2022-10-05T18:05:01.476Z,23.2
2022-10-05T18:10:00.939Z,23.2
2022-10-05T18:15:00.971Z,23.2
2022-10-05T18:20:01.347Z,23.2
2022-10-05T18:25:00.098Z,23.2
2022-10-05T18:30:02.843Z,23.1
2022-10-05T18:35:02.270Z,23.1
2022-10-05T18:40:00.197Z,23.1
2022-10-05T18:45:00.111Z,23.1
2022-10-05T18:50:01.487Z,23.1
2022-10-05T18:55:01.279Z,23.1
2022-10-05T19:00:00.154Z,23.1
2022-10-05T19:05:01.024Z,23.1
2022-10-05T19:10:01.055Z,23.1
2022-10-05T19:15:00.116Z,23.1
2022-10-05T19:20:01.559Z,23.1
2022-10-05T19:25:00.101Z,23.1
2022-10-05T19:30:01.017Z,23.1
2022-10-05T19:35:01.954Z,23.1
2022-10-05T19:40:02.527Z,23.1
2022-10-05T19:45:00.094Z,23.1
2022-10-05T19:50:01.225Z,23.2
2022-10-05T19:55:01.048Z,23.1
2022-10-05T20:00:01.123Z,23.1
2022-10-05T20:05:01.529Z,23.2
2022-10-05T20:10:01.000Z,23.1
2022-10-05T20:15:00.104Z,23.1
2022-10-05T20:20:01.273Z,23.2
2022-10-05T20:25:00.160Z,23.1
2022-10-05T20:30:01.541Z,23.2
2022-10-05T20:35:00.154Z,23.1
2022-10-05T20:40:02.825Z,23.2
2022-10-05T20:45:01.759Z,23.2
2022-10-05T20:50:02.023Z,23.2
2022-10-05T20:55:01.254Z,23.2
2022-10-05T21:00:01.544Z,23.2
2022-10-05T21:05:01.372Z,23.3
2022-10-05T21:10:01.438Z,23.2
2022-10-05T21:15:01.014Z,23.2
2022-10-05T21:20:02.527Z,23.2
2022-10-05T21:25:00.140Z,23.2
2022-10-05T21:30:00.131Z,23.2
2022-10-05T21:35:00.099Z,23.2
2022-10-05T21:40:00.982Z,23.2
2022-10-05T21:45:00.113Z,23.2
2022-10-05T21:50:00.143Z,23.3
2022-10-05T21:55:01.201Z,23.3
2022-10-05T22:00:01.037Z,23.3
2022-10-05T22:05:00.161Z,23.3
2022-10-05T22:10:01.031Z,23.3
2022-10-05T22:15:00.125Z,23.3
2022-10-05T22:20:01.040Z,23.3
2022-10-05T22:25:01.080Z,23.3
2022-10-05T22:30:01.244Z,23.3
2022-10-05T22:35:00.118Z,23.3
2022-10-05T22:40:01.282Z,23.3
2022-10-05T22:45:01.285Z,23.3
2022-10-05T22:50:01.928Z,23.3
2022-10-05T22:55:01.234Z,23.3
2022-10-05T23:00:01.315Z,23.3
2022-10-05T23:05:00.124Z,23.3
2022-10-05T23:10:00.116Z,23.3
2022-10-05T23:15:01.251Z,23.4
2022-10-05T23:20:01.317Z,23.3
2022-10-05T23:25:00.114Z,23.3
2022-10-05T23:30:00.164Z,23.4
2022-10-05T23:35:00.099Z,23.3
2022-10-05T23:40:02.113Z,23.3
2022-10-05T23:45:00.975Z,23.4
2022-10-05T23:50:00.144Z,23.3
2022-10-05T23:55:00.097Z,23.3
